sensor_id;sensor_type;location;lat;lon;timestamp;temperature;humidity
31391;DHT22;18022;45.492;11.548;2023-07-31T00:02:04;22.90;99.90
31391;DHT22;18022;45.492;11.548;2023-07-31T00:04:29;22.90;99.90
31391;DHT22;18022;45.492;11.548;2023-07-31T00:06:55;22.90;99.90
31391;DHT22;18022;45.492;11.548;2023-07-31T00:09:21;23.00;99.90
31391;DHT22;18022;45.492;11.548;2023-07-31T00:11:46;22.90;99.90
31391;DHT22;18022;45.492;11.548;2023-07-31T00:14:12;22.90;99.90
31391;DHT22;18022;45.492;11.548;2023-07-31T00:16:38;22.90;99.90
31391;DHT22;18022;45.492;11.548;2023-07-31T00:19:04;22.90;99.90
31391;DHT22;18022;45.492;11.548;2023-07-31T00:21:29;23.00;99.90
31391;DHT22;18022;45.492;11.548;2023-07-31T00:23:55;22.90;99.90
31391;DHT22;18022;45.492;11.548;2023-07-31T00:26:20;22.70;99.90
31391;DHT22;18022;45.492;11.548;2023-07-31T00:28:46;22.60;99.90
31391;DHT22;18022;45.492;11.548;2023-07-31T00:31:12;22.60;99.90
31391;DHT22;18022;45.492;11.548;2023-07-31T00:33:38;22.60;99.90
31391;DHT22;18022;45.492;11.548;2023-07-31T00:36:04;22.60;99.90
31391;DHT22;18022;45.492;11.548;2023-07-31T00:38:29;22.60;99.90
31391;DHT22;18022;45.492;11.548;2023-07-31T00:40:55;22.60;99.90
31391;DHT22;18022;45.492;11.548;2023-07-31T00:43:21;22.60;99.90
31391;DHT22;18022;45.492;11.548;2023-07-31T00:45:46;22.40;99.90
31391;DHT22;18022;45.492;11.548;2023-07-31T00:48:12;22.40;99.90
31391;DHT22;18022;45.492;11.548;2023-07-31T00:50:39;22.40;99.90
31391;DHT22;18022;45.492;11.548;2023-07-31T00:53:05;22.40;99.90
31391;DHT22;18022;45.492;11.548;2023-07-31T00:55:31;22.40;99.90
31391;DHT22;18022;45.492;11.548;2023-07-31T00:57:56;22.40;99.90
31391;DHT22;18022;45.492;11.548;2023-07-31T01:00:22;22.40;99.90
31391;DHT22;18022;45.492;11.548;2023-07-31T01:02:49;22.40;99.90
31391;DHT22;18022;45.492;11.548;2023-07-31T01:05:16;22.40;99.90
31391;DHT22;18022;45.492;11.548;2023-07-31T01:07:52;22.30;99.90
31391;DHT22;18022;45.492;11.548;2023-07-31T01:10:24;22.30;99.90
31391;DHT22;18022;45.492;11.548;2023-07-31T01:12:51;22.40;99.90
31391;DHT22;18022;45.492;11.548;2023-07-31T01:15:18;22.40;99.90
31391;DHT22;18022;45.492;11.548;2023-07-31T01:17:44;22.30;99.90
31391;DHT22;18022;45.492;11.548;2023-07-31T01:20:21;22.30;99.90
31391;DHT22;18022;45.492;11.548;2023-07-31T01:23:33;22.20;99.90
31391;DHT22;18022;45.492;11.548;2023-07-31T01:31:24;22.20;99.90
31391;DHT22;18022;45.492;11.548;2023-07-31T01:33:53;22.20;99.90
31391;DHT22;18022;45.492;11.548;2023-07-31T01:36:20;22.20;99.90
31391;DHT22;18022;45.492;11.548;2023-07-31T01:38:46;22.20;99.90
31391;DHT22;18022;45.492;11.548;2023-07-31T01:41:11;22.20;99.90
31391;DHT22;18022;45.492;11.548;2023-07-31T01:43:37;22.10;99.90
31391;DHT22;18022;45.492;11.548;2023-07-31T01:46:03;22.10;99.90
31391;DHT22;18022;45.492;11.548;2023-07-31T01:48:28;22.10;99.90
31391;DHT22;18022;45.492;11.548;2023-07-31T01:50:54;22.10;99.90
31391;DHT22;18022;45.492;11.548;2023-07-31T01:53:20;22.00;99.90
31391;DHT22;18022;45.492;11.548;2023-07-31T01:55:45;22.00;99.90
31391;DHT22;18022;45.492;11.548;2023-07-31T01:58:11;22.00;99.90
31391;DHT22;18022;45.492;11.548;2023-07-31T02:00:37;22.00;99.90
31391;DHT22;18022;45.492;11.548;2023-07-31T02:03:02;22.00;99.90
31391;DHT22;18022;45.492;11.548;2023-07-31T02:05:28;21.90;99.90
31391;DHT22;18022;45.492;11.548;2023-07-31T02:07:54;21.90;99.90
31391;DHT22;18022;45.492;11.548;2023-07-31T02:10:19;22.00;99.90
31391;DHT22;18022;45.492;11.548;2023-07-31T02:12:45;21.90;99.90
31391;DHT22;18022;45.492;11.548;2023-07-31T02:15:11;21.90;99.90
31391;DHT22;18022;45.492;11.548;2023-07-31T02:17:36;21.90;99.90
31391;DHT22;18022;45.492;11.548;2023-07-31T02:20:02;21.90;99.90
31391;DHT22;18022;45.492;11.548;2023-07-31T02:22:28;21.90;99.90
31391;DHT22;18022;45.492;11.548;2023-07-31T02:24:54;21.90;99.90
31391;DHT22;18022;45.492;11.548;2023-07-31T02:27:19;21.90;99.90
31391;DHT22;18022;45.492;11.548;2023-07-31T02:29:46;21.90;99.90
31391;DHT22;18022;45.492;11.548;2023-07-31T02:32:11;21.90;99.90
31391;DHT22;18022;45.492;11.548;2023-07-31T02:34:37;21.90;99.90
31391;DHT22;18022;45.492;11.548;2023-07-31T02:37:03;21.90;99.90
31391;DHT22;18022;45.492;11.548;2023-07-31T02:39:29;21.80;99.90
31391;DHT22;18022;45.492;11.548;2023-07-31T02:41:54;21.80;99.90
31391;DHT22;18022;45.492;11.548;2023-07-31T02:44:20;21.80;99.90
31391;DHT22;18022;45.492;11.548;2023-07-31T02:46:46;21.70;99.90
31391;DHT22;18022;45.492;11.548;2023-07-31T02:49:12;21.80;99.90
31391;DHT22;18022;45.492;11.548;2023-07-31T02:51:37;21.80;99.90
31391;DHT22;18022;45.492;11.548;2023-07-31T02:54:03;21.70;99.90
31391;DHT22;18022;45.492;11.548;2023-07-31T02:56:29;21.70;99.90
31391;DHT22;18022;45.492;11.548;2023-07-31T02:58:54;21.60;99.90
31391;DHT22;18022;45.492;11.548;2023-07-31T03:01:20;21.70;99.90
31391;DHT22;18022;45.492;11.548;2023-07-31T03:03:46;21.70;99.90
31391;DHT22;18022;45.492;11.548;2023-07-31T03:06:11;21.60;99.90
31391;DHT22;18022;45.492;11.548;2023-07-31T03:08:37;21.60;99.90
31391;DHT22;18022;45.492;11.548;2023-07-31T03:11:03;21.60;99.90
31391;DHT22;18022;45.492;11.548;2023-07-31T03:13:28;21.60;99.90
31391;DHT22;18022;45.492;11.548;2023-07-31T03:15:54;21.60;99.90
31391;DHT22;18022;45.492;11.548;2023-07-31T03:18:20;21.50;99.90
31391;DHT22;18022;45.492;11.548;2023-07-31T03:20:45;21.50;99.90
31391;DHT22;18022;45.492;11.548;2023-07-31T03:23:11;21.60;99.90
31391;DHT22;18022;45.492;11.548;2023-07-31T03:25:37;21.60;99.90
31391;DHT22;18022;45.492;11.548;2023-07-31T03:28:03;21.50;99.90
31391;DHT22;18022;45.492;11.548;2023-07-31T03:30:28;21.50;99.90
31391;DHT22;18022;45.492;11.548;2023-07-31T03:32:54;21.40;99.90
31391;DHT22;18022;45.492;11.548;2023-07-31T03:35:19;21.40;99.90
31391;DHT22;18022;45.492;11.548;2023-07-31T03:37:45;21.40;99.90
31391;DHT22;18022;45.492;11.548;2023-07-31T03:40:11;21.40;99.90
31391;DHT22;18022;45.492;11.548;2023-07-31T03:42:37;21.40;99.90
31391;DHT22;18022;45.492;11.548;2023-07-31T03:45:03;21.40;99.90
31391;DHT22;18022;45.492;11.548;2023-07-31T03:47:29;21.40;99.90
31391;DHT22;18022;45.492;11.548;2023-07-31T03:49:54;21.50;99.90
31391;DHT22;18022;45.492;11.548;2023-07-31T03:52:20;21.50;99.90
31391;DHT22;18022;45.492;11.548;2023-07-31T03:54:45;21.50;99.90
31391;DHT22;18022;45.492;11.548;2023-07-31T03:57:11;21.40;99.90
31391;DHT22;18022;45.492;11.548;2023-07-31T03:59:37;21.40;99.90
31391;DHT22;18022;45.492;11.548;2023-07-31T04:02:06;21.40;99.90
31391;DHT22;18022;45.492;11.548;2023-07-31T04:04:31;21.40;99.90
31391;DHT22;18022;45.492;11.548;2023-07-31T04:06:57;21.40;99.90
31391;DHT22;18022;45.492;11.548;2023-07-31T04:09:23;21.40;99.90
31391;DHT22;18022;45.492;11.548;2023-07-31T04:11:48;21.40;99.90
31391;DHT22;18022;45.492;11.548;2023-07-31T04:14:14;21.40;99.90
31391;DHT22;18022;45.492;11.548;2023-07-31T04:16:40;21.50;99.90
31391;DHT22;18022;45.492;11.548;2023-07-31T04:19:05;21.50;99.90
31391;DHT22;18022;45.492;11.548;2023-07-31T04:21:31;21.50;99.90
31391;DHT22;18022;45.492;11.548;2023-07-31T04:23:57;21.50;99.90
31391;DHT22;18022;45.492;11.548;2023-07-31T04:26:23;21.50;99.90
31391;DHT22;18022;45.492;11.548;2023-07-31T04:28:49;21.60;99.90
31391;DHT22;18022;45.492;11.548;2023-07-31T04:31:15;21.60;99.90
31391;DHT22;18022;45.492;11.548;2023-07-31T04:33:40;21.60;99.90
31391;DHT22;18022;45.492;11.548;2023-07-31T04:36:06;21.60;99.90
31391;DHT22;18022;45.492;11.548;2023-07-31T04:38:32;21.60;99.90
31391;DHT22;18022;45.492;11.548;2023-07-31T04:40:57;21.70;99.90
31391;DHT22;18022;45.492;11.548;2023-07-31T04:43:23;21.70;99.90
31391;DHT22;18022;45.492;11.548;2023-07-31T04:45:49;21.70;99.90
31391;DHT22;18022;45.492;11.548;2023-07-31T04:48:15;21.70;99.90
31391;DHT22;18022;45.492;11.548;2023-07-31T04:50:42;21.70;99.90
31391;DHT22;18022;45.492;11.548;2023-07-31T04:53:07;21.70;99.90
31391;DHT22;18022;45.492;11.548;2023-07-31T04:55:33;21.70;99.90
31391;DHT22;18022;45.492;11.548;2023-07-31T04:57:59;21.70;99.90
31391;DHT22;18022;45.492;11.548;2023-07-31T05:00:25;21.80;99.90
31391;DHT22;18022;45.492;11.548;2023-07-31T05:02:51;21.80;99.90
31391;DHT22;18022;45.492;11.548;2023-07-31T05:05:16;21.90;99.90
31391;DHT22;18022;45.492;11.548;2023-07-31T05:07:42;21.90;99.90
31391;DHT22;18022;45.492;11.548;2023-07-31T05:10:08;22.00;99.90
31391;DHT22;18022;45.492;11.548;2023-07-31T05:12:34;22.00;99.90
31391;DHT22;18022;45.492;11.548;2023-07-31T05:14:59;22.10;99.90
31391;DHT22;18022;45.492;11.548;2023-07-31T05:17:25;22.10;99.90
31391;DHT22;18022;45.492;11.548;2023-07-31T05:19:51;22.10;99.90
31391;DHT22;18022;45.492;11.548;2023-07-31T05:22:16;22.10;99.90
31391;DHT22;18022;45.492;11.548;2023-07-31T05:24:42;22.20;99.90
31391;DHT22;18022;45.492;11.548;2023-07-31T05:27:08;22.20;99.90
31391;DHT22;18022;45.492;11.548;2023-07-31T05:29:35;22.20;99.90
31391;DHT22;18022;45.492;11.548;2023-07-31T05:32:01;22.30;99.90
31391;DHT22;18022;45.492;11.548;2023-07-31T05:34:26;22.50;99.90
31391;DHT22;18022;45.492;11.548;2023-07-31T05:36:52;22.70;99.90
31391;DHT22;18022;45.492;11.548;2023-07-31T05:39:18;22.90;99.90
31391;DHT22;18022;45.492;11.548;2023-07-31T05:41:45;23.00;99.90
31391;DHT22;18022;45.492;11.548;2023-07-31T05:44:11;23.00;99.90
31391;DHT22;18022;45.492;11.548;2023-07-31T05:46:36;22.90;99.90
31391;DHT22;18022;45.492;11.548;2023-07-31T05:49:02;23.20;99.90
31391;DHT22;18022;45.492;11.548;2023-07-31T05:51:28;23.50;99.90
31391;DHT22;18022;45.492;11.548;2023-07-31T05:53:54;23.50;99.90
31391;DHT22;18022;45.492;11.548;2023-07-31T05:56:19;23.40;99.90
31391;DHT22;18022;45.492;11.548;2023-07-31T05:58:45;23.30;99.90
31391;DHT22;18022;45.492;11.548;2023-07-31T06:01:11;23.20;99.90
31391;DHT22;18022;45.492;11.548;2023-07-31T06:03:37;23.20;99.90
31391;DHT22;18022;45.492;11.548;2023-07-31T06:06:02;23.20;99.90
31391;DHT22;18022;45.492;11.548;2023-07-31T06:08:28;23.30;99.90
31391;DHT22;18022;45.492;11.548;2023-07-31T06:10:53;23.40;99.90
31391;DHT22;18022;45.492;11.548;2023-07-31T06:13:19;23.40;99.90
31391;DHT22;18022;45.492;11.548;2023-07-31T06:15:45;23.50;99.90
31391;DHT22;18022;45.492;11.548;2023-07-31T06:18:10;23.50;99.90
31391;DHT22;18022;45.492;11.548;2023-07-31T06:20:36;23.60;99.90
31391;DHT22;18022;45.492;11.548;2023-07-31T06:23:02;23.70;99.90
31391;DHT22;18022;45.492;11.548;2023-07-31T06:25:29;23.80;99.90
31391;DHT22;18022;45.492;11.548;2023-07-31T06:27:54;23.90;99.90
31391;DHT22;18022;45.492;11.548;2023-07-31T06:30:20;24.00;99.90
31391;DHT22;18022;45.492;11.548;2023-07-31T06:32:46;24.00;99.90
31391;DHT22;18022;45.492;11.548;2023-07-31T06:35:12;24.10;99.90
31391;DHT22;18022;45.492;11.548;2023-07-31T06:37:37;24.20;99.90
31391;DHT22;18022;45.492;11.548;2023-07-31T06:40:06;24.20;99.90
31391;DHT22;18022;45.492;11.548;2023-07-31T06:42:34;24.30;99.90
31391;DHT22;18022;45.492;11.548;2023-07-31T06:45:01;24.40;99.90
31391;DHT22;18022;45.492;11.548;2023-07-31T06:47:27;24.50;99.90
31391;DHT22;18022;45.492;11.548;2023-07-31T06:49:53;24.50;99.90
31391;DHT22;18022;45.492;11.548;2023-07-31T06:52:18;24.60;99.90
31391;DHT22;18022;45.492;11.548;2023-07-31T06:54:53;24.70;99.90
31391;DHT22;18022;45.492;11.548;2023-07-31T06:57:25;24.70;99.90
31391;DHT22;18022;45.492;11.548;2023-07-31T06:59:50;24.80;99.90
31391;DHT22;18022;45.492;11.548;2023-07-31T07:02:16;24.90;99.90
31391;DHT22;18022;45.492;11.548;2023-07-31T07:04:42;24.90;99.90
31391;DHT22;18022;45.492;11.548;2023-07-31T07:07:07;24.90;99.90
31391;DHT22;18022;45.492;11.548;2023-07-31T07:09:33;24.90;99.90
31391;DHT22;18022;45.492;11.548;2023-07-31T07:11:59;24.80;99.90
31391;DHT22;18022;45.492;11.548;2023-07-31T07:14:24;25.00;99.90
31391;DHT22;18022;45.492;11.548;2023-07-31T07:16:53;25.00;99.90
31391;DHT22;18022;45.492;11.548;2023-07-31T07:19:19;25.00;99.90
31391;DHT22;18022;45.492;11.548;2023-07-31T07:21:44;25.20;99.90
31391;DHT22;18022;45.492;11.548;2023-07-31T07:24:10;25.30;99.90
31391;DHT22;18022;45.492;11.548;2023-07-31T07:26:36;25.30;99.90
31391;DHT22;18022;45.492;11.548;2023-07-31T07:29:02;25.40;99.90
31391;DHT22;18022;45.492;11.548;2023-07-31T07:31:28;25.40;99.90
31391;DHT22;18022;45.492;11.548;2023-07-31T07:33:54;25.50;99.90
31391;DHT22;18022;45.492;11.548;2023-07-31T07:36:19;25.60;99.90
31391;DHT22;18022;45.492;11.548;2023-07-31T07:38:45;25.50;99.90
31391;DHT22;18022;45.492;11.548;2023-07-31T07:41:11;25.60;99.90
31391;DHT22;18022;45.492;11.548;2023-07-31T07:43:36;25.70;99.90
31391;DHT22;18022;45.492;11.548;2023-07-31T07:46:02;25.80;99.90
31391;DHT22;18022;45.492;11.548;2023-07-31T07:48:28;25.90;99.90
31391;DHT22;18022;45.492;11.548;2023-07-31T07:50:53;26.00;99.90
31391;DHT22;18022;45.492;11.548;2023-07-31T07:53:19;26.00;99.90
31391;DHT22;18022;45.492;11.548;2023-07-31T07:55:45;25.90;99.90
31391;DHT22;18022;45.492;11.548;2023-07-31T07:58:11;25.90;99.90
31391;DHT22;18022;45.492;11.548;2023-07-31T08:00:37;25.90;99.90
31391;DHT22;18022;45.492;11.548;2023-07-31T08:03:02;25.90;99.90
31391;DHT22;18022;45.492;11.548;2023-07-31T08:05:28;26.00;99.90
31391;DHT22;18022;45.492;11.548;2023-07-31T08:07:54;26.00;99.90
31391;DHT22;18022;45.492;11.548;2023-07-31T08:10:20;26.20;99.90
31391;DHT22;18022;45.492;11.548;2023-07-31T08:12:45;26.20;99.90
31391;DHT22;18022;45.492;11.548;2023-07-31T08:15:11;26.20;99.90
31391;DHT22;18022;45.492;11.548;2023-07-31T08:17:37;26.20;99.90
31391;DHT22;18022;45.492;11.548;2023-07-31T08:20:02;26.20;99.90
31391;DHT22;18022;45.492;11.548;2023-07-31T08:22:28;26.20;99.90
31391;DHT22;18022;45.492;11.548;2023-07-31T08:24:54;26.30;99.90
31391;DHT22;18022;45.492;11.548;2023-07-31T08:27:20;26.40;99.90
31391;DHT22;18022;45.492;11.548;2023-07-31T08:29:45;26.40;99.90
31391;DHT22;18022;45.492;11.548;2023-07-31T08:32:11;26.40;99.90
31391;DHT22;18022;45.492;11.548;2023-07-31T08:34:37;26.40;99.90
31391;DHT22;18022;45.492;11.548;2023-07-31T08:37:02;26.30;99.90
31391;DHT22;18022;45.492;11.548;2023-07-31T08:39:28;26.30;99.90
31391;DHT22;18022;45.492;11.548;2023-07-31T08:41:58;26.30;99.90
31391;DHT22;18022;45.492;11.548;2023-07-31T08:44:25;26.20;99.90
31391;DHT22;18022;45.492;11.548;2023-07-31T08:46:51;26.30;99.90
31391;DHT22;18022;45.492;11.548;2023-07-31T08:49:20;26.30;99.90
31391;DHT22;18022;45.492;11.548;2023-07-31T08:51:49;26.50;99.90
31391;DHT22;18022;45.492;11.548;2023-07-31T08:54:15;26.60;99.90
31391;DHT22;18022;45.492;11.548;2023-07-31T08:56:42;26.80;99.90
31391;DHT22;18022;45.492;11.548;2023-07-31T08:59:08;26.70;99.90
31391;DHT22;18022;45.492;11.548;2023-07-31T09:01:40;26.70;99.90
31391;DHT22;18022;45.492;11.548;2023-07-31T09:04:09;26.90;99.90
31391;DHT22;18022;45.492;11.548;2023-07-31T09:06:36;27.10;99.90
31391;DHT22;18022;45.492;11.548;2023-07-31T09:09:02;27.10;99.90
31391;DHT22;18022;45.492;11.548;2023-07-31T09:11:28;27.10;99.90
31391;DHT22;18022;45.492;11.548;2023-07-31T09:13:57;27.10;99.90
31391;DHT22;18022;45.492;11.548;2023-07-31T09:16:29;27.10;99.90
31391;DHT22;18022;45.492;11.548;2023-07-31T09:18:57;27.10;99.90
31391;DHT22;18022;45.492;11.548;2023-07-31T09:21:24;27.10;99.90
31391;DHT22;18022;45.492;11.548;2023-07-31T09:23:51;27.20;99.90
31391;DHT22;18022;45.492;11.548;2023-07-31T09:26:39;27.30;99.90
31391;DHT22;18022;45.492;11.548;2023-07-31T09:29:06;27.30;99.90
31391;DHT22;18022;45.492;11.548;2023-07-31T09:31:41;27.30;99.90
31391;DHT22;18022;45.492;11.548;2023-07-31T09:34:07;27.30;99.90
31391;DHT22;18022;45.492;11.548;2023-07-31T09:36:47;27.40;99.90
31391;DHT22;18022;45.492;11.548;2023-07-31T09:39:14;27.40;99.90
31391;DHT22;18022;45.492;11.548;2023-07-31T09:41:46;27.60;99.90
31391;DHT22;18022;45.492;11.548;2023-07-31T09:44:12;27.50;99.90
31391;DHT22;18022;45.492;11.548;2023-07-31T09:46:38;27.70;99.90
31391;DHT22;18022;45.492;11.548;2023-07-31T09:51:31;28.00;99.90
31391;DHT22;18022;45.492;11.548;2023-07-31T09:53:57;28.00;99.90
31391;DHT22;18022;45.492;11.548;2023-07-31T09:56:23;27.90;99.90
31391;DHT22;18022;45.492;11.548;2023-07-31T09:58:49;28.00;99.90
31391;DHT22;18022;45.492;11.548;2023-07-31T10:01:15;28.20;99.90
31391;DHT22;18022;45.492;11.548;2023-07-31T10:03:42;28.10;99.90
31391;DHT22;18022;45.492;11.548;2023-07-31T10:06:09;28.10;99.90
31391;DHT22;18022;45.492;11.548;2023-07-31T10:08:36;28.40;99.90
31391;DHT22;18022;45.492;11.548;2023-07-31T10:11:02;28.40;99.90
31391;DHT22;18022;45.492;11.548;2023-07-31T10:13:30;28.50;99.90
31391;DHT22;18022;45.492;11.548;2023-07-31T10:15:59;28.60;99.90
31391;DHT22;18022;45.492;11.548;2023-07-31T10:18:26;28.60;99.90
31391;DHT22;18022;45.492;11.548;2023-07-31T10:20:53;28.50;99.90
31391;DHT22;18022;45.492;11.548;2023-07-31T10:23:20;28.60;99.90
31391;DHT22;18022;45.492;11.548;2023-07-31T10:25:46;28.50;99.90
31391;DHT22;18022;45.492;11.548;2023-07-31T10:28:13;28.40;99.90
31391;DHT22;18022;45.492;11.548;2023-07-31T10:30:39;28.50;99.90
31391;DHT22;18022;45.492;11.548;2023-07-31T10:33:06;28.70;99.90
31391;DHT22;18022;45.492;11.548;2023-07-31T10:35:32;28.90;99.90
31391;DHT22;18022;45.492;11.548;2023-07-31T10:38:10;28.90;99.90
31391;DHT22;18022;45.492;11.548;2023-07-31T10:40:37;28.90;99.90
31391;DHT22;18022;45.492;11.548;2023-07-31T10:43:03;29.00;99.90
31391;DHT22;18022;45.492;11.548;2023-07-31T10:45:35;29.10;99.90
31391;DHT22;18022;45.492;11.548;2023-07-31T10:48:06;29.10;99.90
31391;DHT22;18022;45.492;11.548;2023-07-31T10:50:37;29.30;99.90
31391;DHT22;18022;45.492;11.548;2023-07-31T10:53:03;29.20;99.90
31391;DHT22;18022;45.492;11.548;2023-07-31T10:55:39;29.20;99.90
31391;DHT22;18022;45.492;11.548;2023-07-31T10:58:13;29.10;99.90
31391;DHT22;18022;45.492;11.548;2023-07-31T11:00:43;29.20;99.90
31391;DHT22;18022;45.492;11.548;2023-07-31T11:03:17;29.20;99.90
31391;DHT22;18022;45.492;11.548;2023-07-31T11:06:03;29.10;99.90
31391;DHT22;18022;45.492;11.548;2023-07-31T11:08:33;29.20;99.90
31391;DHT22;18022;45.492;11.548;2023-07-31T11:13:32;29.70;99.90
31391;DHT22;18022;45.492;11.548;2023-07-31T11:15:58;29.50;99.90
31391;DHT22;18022;45.492;11.548;2023-07-31T11:18:25;29.50;99.90
31391;DHT22;18022;45.492;11.548;2023-07-31T11:20:52;29.50;99.90
31391;DHT22;18022;45.492;11.548;2023-07-31T11:23:18;29.70;99.90
31391;DHT22;18022;45.492;11.548;2023-07-31T11:25:44;29.60;99.90
31391;DHT22;18022;45.492;11.548;2023-07-31T11:28:15;29.70;99.90
31391;DHT22;18022;45.492;11.548;2023-07-31T11:30:43;29.60;99.90
31391;DHT22;18022;45.492;11.548;2023-07-31T11:33:11;29.60;99.90
31391;DHT22;18022;45.492;11.548;2023-07-31T11:35:48;29.70;99.90
31391;DHT22;18022;45.492;11.548;2023-07-31T11:38:30;30.10;99.90
31391;DHT22;18022;45.492;11.548;2023-07-31T11:41:02;29.90;99.90
31391;DHT22;18022;45.492;11.548;2023-07-31T11:43:31;29.80;99.90
31391;DHT22;18022;45.492;11.548;2023-07-31T11:45:58;29.60;99.90
31391;DHT22;18022;45.492;11.548;2023-07-31T11:48:32;29.60;99.90
31391;DHT22;18022;45.492;11.548;2023-07-31T11:51:05;29.50;99.90
31391;DHT22;18022;45.492;11.548;2023-07-31T11:53:45;29.60;99.90
31391;DHT22;18022;45.492;11.548;2023-07-31T11:56:15;29.90;99.90
31391;DHT22;18022;45.492;11.548;2023-07-31T11:58:43;30.20;99.90
31391;DHT22;18022;45.492;11.548;2023-07-31T12:01:11;30.00;99.90
31391;DHT22;18022;45.492;11.548;2023-07-31T12:03:38;30.10;99.90
31391;DHT22;18022;45.492;11.548;2023-07-31T12:06:04;29.80;99.60
31391;DHT22;18022;45.492;11.548;2023-07-31T12:08:29;29.80;99.80
31391;DHT22;18022;45.492;11.548;2023-07-31T12:11:05;30.00;99.90
31391;DHT22;18022;45.492;11.548;2023-07-31T12:13:32;30.20;99.90
31391;DHT22;18022;45.492;11.548;2023-07-31T12:16:00;30.10;99.90
31391;DHT22;18022;45.492;11.548;2023-07-31T12:18:30;30.20;99.60
31391;DHT22;18022;45.492;11.548;2023-07-31T12:21:00;30.10;99.90
31391;DHT22;18022;45.492;11.548;2023-07-31T12:23:31;29.90;99.90
31391;DHT22;18022;45.492;11.548;2023-07-31T12:26:10;29.90;99.90
31391;DHT22;18022;45.492;11.548;2023-07-31T12:28:49;29.90;99.90
31391;DHT22;18022;45.492;11.548;2023-07-31T12:31:20;30.10;99.90
31391;DHT22;18022;45.492;11.548;2023-07-31T12:33:48;29.70;99.30
31391;DHT22;18022;45.492;11.548;2023-07-31T12:36:22;29.50;99.90
31391;DHT22;18022;45.492;11.548;2023-07-31T12:38:50;29.70;99.90
31391;DHT22;18022;45.492;11.548;2023-07-31T12:41:16;29.40;99.90
31391;DHT22;18022;45.492;11.548;2023-07-31T12:43:43;29.50;99.90
31391;DHT22;18022;45.492;11.548;2023-07-31T12:46:10;29.50;99.90
31391;DHT22;18022;45.492;11.548;2023-07-31T12:48:37;29.70;99.90
31391;DHT22;18022;45.492;11.548;2023-07-31T12:51:03;29.80;99.90
31391;DHT22;18022;45.492;11.548;2023-07-31T12:53:30;30.10;99.90
31391;DHT22;18022;45.492;11.548;2023-07-31T12:55:59;29.90;99.90
31391;DHT22;18022;45.492;11.548;2023-07-31T12:58:25;29.90;99.90
31391;DHT22;18022;45.492;11.548;2023-07-31T13:00:51;30.30;99.90
31391;DHT22;18022;45.492;11.548;2023-07-31T13:03:17;30.40;99.90
31391;DHT22;18022;45.492;11.548;2023-07-31T13:05:43;30.50;99.90
31391;DHT22;18022;45.492;11.548;2023-07-31T13:08:09;30.40;99.90
31391;DHT22;18022;45.492;11.548;2023-07-31T13:10:34;30.30;99.90
31391;DHT22;18022;45.492;11.548;2023-07-31T13:13:00;30.20;99.90
31391;DHT22;18022;45.492;11.548;2023-07-31T13:15:26;30.20;99.90
31391;DHT22;18022;45.492;11.548;2023-07-31T13:17:52;30.30;99.90
31391;DHT22;18022;45.492;11.548;2023-07-31T13:20:17;30.40;99.90
31391;DHT22;18022;45.492;11.548;2023-07-31T13:22:43;30.30;99.90
31391;DHT22;18022;45.492;11.548;2023-07-31T13:25:09;30.30;99.90
31391;DHT22;18022;45.492;11.548;2023-07-31T13:27:35;30.10;99.90
31391;DHT22;18022;45.492;11.548;2023-07-31T13:30:01;30.20;99.90
31391;DHT22;18022;45.492;11.548;2023-07-31T13:32:27;30.20;99.90
31391;DHT22;18022;45.492;11.548;2023-07-31T13:34:53;30.20;99.90
31391;DHT22;18022;45.492;11.548;2023-07-31T13:37:19;30.30;99.90
31391;DHT22;18022;45.492;11.548;2023-07-31T13:39:44;30.10;99.90
31391;DHT22;18022;45.492;11.548;2023-07-31T13:42:10;30.10;99.90
31391;DHT22;18022;45.492;11.548;2023-07-31T13:44:41;30.20;99.90
31391;DHT22;18022;45.492;11.548;2023-07-31T13:47:07;29.90;99.90
31391;DHT22;18022;45.492;11.548;2023-07-31T13:49:34;29.90;99.90
31391;DHT22;18022;45.492;11.548;2023-07-31T13:52:00;30.10;99.90
31391;DHT22;18022;45.492;11.548;2023-07-31T13:54:26;30.30;99.90
31391;DHT22;18022;45.492;11.548;2023-07-31T13:56:52;30.30;99.90
31391;DHT22;18022;45.492;11.548;2023-07-31T13:59:18;30.00;99.90
31391;DHT22;18022;45.492;11.548;2023-07-31T14:01:44;30.00;99.90
31391;DHT22;18022;45.492;11.548;2023-07-31T14:04:10;30.00;99.90
31391;DHT22;18022;45.492;11.548;2023-07-31T14:06:39;29.90;99.90
31391;DHT22;18022;45.492;11.548;2023-07-31T14:09:05;29.90;99.90
31391;DHT22;18022;45.492;11.548;2023-07-31T14:11:32;30.20;99.90
31391;DHT22;18022;45.492;11.548;2023-07-31T14:13:57;30.30;99.90
31391;DHT22;18022;45.492;11.548;2023-07-31T14:16:23;30.20;99.90
31391;DHT22;18022;45.492;11.548;2023-07-31T14:18:49;30.10;99.90
31391;DHT22;18022;45.492;11.548;2023-07-31T14:21:15;29.90;99.90
31391;DHT22;18022;45.492;11.548;2023-07-31T14:23:41;29.80;99.90
31391;DHT22;18022;45.492;11.548;2023-07-31T14:26:07;29.80;99.90
31391;DHT22;18022;45.492;11.548;2023-07-31T14:28:33;29.80;99.90
31391;DHT22;18022;45.492;11.548;2023-07-31T14:30:59;30.00;99.90
31391;DHT22;18022;45.492;11.548;2023-07-31T14:33:24;30.20;99.90
31391;DHT22;18022;45.492;11.548;2023-07-31T14:35:50;30.20;99.70
31391;DHT22;18022;45.492;11.548;2023-07-31T14:38:16;30.20;99.90
31391;DHT22;18022;45.492;11.548;2023-07-31T14:40:42;30.20;99.90
31391;DHT22;18022;45.492;11.548;2023-07-31T14:43:08;30.30;99.90
31391;DHT22;18022;45.492;11.548;2023-07-31T14:45:33;30.10;99.90
31391;DHT22;18022;45.492;11.548;2023-07-31T14:47:59;30.10;99.90
31391;DHT22;18022;45.492;11.548;2023-07-31T14:50:25;30.10;99.90
31391;DHT22;18022;45.492;11.548;2023-07-31T14:52:51;30.20;99.90
31391;DHT22;18022;45.492;11.548;2023-07-31T14:55:18;30.20;99.90
31391;DHT22;18022;45.492;11.548;2023-07-31T14:57:44;30.20;99.90
31391;DHT22;18022;45.492;11.548;2023-07-31T15:00:10;30.20;99.90
31391;DHT22;18022;45.492;11.548;2023-07-31T15:02:36;30.30;99.80
31391;DHT22;18022;45.492;11.548;2023-07-31T15:05:02;30.20;99.80
31391;DHT22;18022;45.492;11.548;2023-07-31T15:07:28;30.00;99.00
31391;DHT22;18022;45.492;11.548;2023-07-31T15:09:54;30.00;99.70
31391;DHT22;18022;45.492;11.548;2023-07-31T15:12:20;29.90;99.90
31391;DHT22;18022;45.492;11.548;2023-07-31T15:14:45;29.90;99.90
31391;DHT22;18022;45.492;11.548;2023-07-31T15:17:11;30.10;99.90
31391;DHT22;18022;45.492;11.548;2023-07-31T15:19:37;30.20;99.90
31391;DHT22;18022;45.492;11.548;2023-07-31T15:22:05;30.20;99.90
31391;DHT22;18022;45.492;11.548;2023-07-31T15:24:31;30.20;99.90